Time;durP1;ratioP1;P1;durP2;ratioP2;P2;SDS_P1;SDS_P2;PMS_P1;PMS_P2;Temp;Humidity;BMP_temperature;BMP_pressure;BME280_temperature;BME280_humidity;BME280_pressure;Samples;Min_cycle;Max_cycle;Signal;HPM_P1;HPM_P2
2023/05/12 00:01:00;;;;;;;0.63;0.63;;;;;;;11.60;100.00;100634.53;5071630;28;20237;-77
2023/05/12 00:03:27;;;;;;;0.65;0.65;;;;;;;11.63;100.00;100644.13;5072528;28;20195;-77
2023/05/12 00:05:54;;;;;;;0.70;0.70;;;;;;;11.62;100.00;100644.97;5072797;28;20210;-77
2023/05/12 00:08:20;;;;;;;0.60;0.60;;;;;;;11.45;100.00;100619.53;5072557;28;20198;-76
2023/05/12 00:10:47;;;;;;;0.70;0.70;;;;;;;11.50;100.00;100623.94;5072380;28;20210;-76
2023/05/12 00:13:14;;;;;;;0.95;0.95;;;;;;;11.51;100.00;100649.06;5072294;28;20281;-76
2023/05/12 00:15:41;;;;;;;0.70;0.70;;;;;;;11.47;100.00;100640.34;5072073;28;20191;-77
2023/05/12 00:18:10;;;;;;;0.60;0.60;;;;;;;11.63;100.00;100631.16;5053321;28;20658;-77
2023/05/12 00:20:38;;;;;;;0.60;0.60;;;;;;;11.47;100.00;100623.88;5071662;28;20219;-77
2023/05/12 00:23:05;;;;;;;0.70;0.70;;;;;;;11.53;100.00;100629.19;5072430;28;20211;-76
2023/05/12 00:25:32;;;;;;;0.70;0.70;;;;;;;11.17;100.00;100557.53;5072673;28;20199;-77
2023/05/12 00:27:59;;;;;;;0.70;0.70;;;;;;;11.54;100.00;100641.34;5071692;28;20187;-77
2023/05/12 00:30:26;;;;;;;0.63;0.63;;;;;;;11.59;100.00;100640.59;5072151;28;20199;-77
2023/05/12 00:32:53;;;;;;;0.63;0.63;;;;;;;11.64;100.00;100641.56;5071737;28;20199;-77
2023/05/12 00:35:21;;;;;;;0.75;0.75;;;;;;;11.53;100.00;100611.00;5070513;28;20218;-77
2023/05/12 00:37:48;;;;;;;0.60;0.60;;;;;;;11.62;100.00;100643.25;5072023;28;20195;-77
2023/05/12 00:40:14;;;;;;;0.70;0.70;;;;;;;11.58;100.00;100637.97;5071791;28;20226;-76
2023/05/12 00:42:42;;;;;;;0.63;0.63;;;;;;;11.59;100.00;100639.72;5020227;28;20203;-76
2023/05/12 00:45:10;;;;;;;0.70;0.70;;;;;;;11.68;100.00;100645.09;5070841;28;20214;-76
2023/05/12 00:47:37;;;;;;;0.70;0.70;;;;;;;11.66;100.00;100639.00;5071797;28;20213;-76
2023/05/12 00:50:05;;;;;;;0.60;0.60;;;;;;;11.58;100.00;100617.19;5071740;28;20280;-76
2023/05/12 00:52:34;;;;;;;0.60;0.60;;;;;;;11.56;100.00;100604.16;5071585;28;20661;-76
2023/05/12 00:55:01;;;;;;;0.70;0.70;;;;;;;11.42;100.00;100616.88;5071743;28;20673;-76
2023/05/12 00:57:28;;;;;;;0.65;0.65;;;;;;;11.34;100.00;100634.00;5071857;28;20339;-76
2023/05/12 00:59:55;;;;;;;0.80;0.80;;;;;;;10.88;100.00;100558.63;5071954;28;20207;-76
2023/05/12 01:02:23;;;;;;;0.63;0.63;;;;;;;11.22;100.00;100607.81;5070811;28;20272;-78
2023/05/12 01:04:50;;;;;;;0.70;0.70;;;;;;;11.38;100.00;100646.22;5071944;28;20630;-77
2023/05/12 01:07:19;;;;;;;0.60;0.60;;;;;;;11.29;100.00;100625.28;5019669;28;20264;-76
2023/05/12 01:09:47;;;;;;;0.70;0.70;;;;;;;11.26;100.00;100639.91;5071712;28;20202;-77
2023/05/12 01:12:14;;;;;;;0.60;0.60;;;;;;;11.19;100.00;100633.72;5071327;28;20229;-77
2023/05/12 01:14:41;;;;;;;0.70;0.70;;;;;;;11.14;100.00;100637.91;5071917;28;20203;-77
2023/05/12 01:17:11;;;;;;;0.70;0.70;;;;;;;11.16;100.00;100630.19;5071117;28;20187;-76
2023/05/12 01:19:42;;;;;;;0.70;0.70;;;;;;;11.18;100.00;100624.16;5071375;28;20249;-76
2023/05/12 01:22:10;;;;;;;0.70;0.70;;;;;;;10.95;100.00;100589.09;5070846;28;20222;-77
2023/05/12 01:24:45;;;;;;;0.70;0.70;;;;;;;10.84;100.00;100549.06;5070638;28;20191;-77
2023/05/12 01:27:16;;;;;;;0.70;0.70;;;;;;;11.16;100.00;100609.41;5070996;28;20202;-76
2023/05/12 01:29:43;;;;;;;0.60;0.60;;;;;;;11.10;100.00;100625.72;5071239;28;20202;-77
2023/05/12 01:32:10;;;;;;;0.70;0.70;;;;;;;10.93;100.00;100614.97;5035619;28;20203;-76
2023/05/12 01:34:37;;;;;;;0.50;0.50;;;;;;;10.94;100.00;100616.75;5070818;28;20249;-76
2023/05/12 01:37:04;;;;;;;0.80;0.80;;;;;;;10.82;100.00;100628.53;5070803;28;20194;-76
2023/05/12 01:39:31;;;;;;;0.70;0.70;;;;;;;10.84;100.00;100625.13;5070835;28;20237;-77
2023/05/12 01:41:58;;;;;;;0.70;0.70;;;;;;;10.59;100.00;100596.91;5070120;28;20226;-76
2023/05/12 01:44:26;;;;;;;0.70;0.70;;;;;;;10.72;100.00;100626.59;5069948;28;20207;-77
2023/05/12 01:46:53;;;;;;;0.70;0.70;;;;;;;10.68;100.00;100623.03;5070197;28;20596;-76
2023/05/12 01:49:20;;;;;;;0.85;0.85;;;;;;;10.72;100.00;100618.81;5070471;28;20199;-76
2023/05/12 01:51:47;;;;;;;0.70;0.70;;;;;;;10.65;100.00;100607.41;5070451;28;20220;-76
2023/05/12 01:54:14;;;;;;;0.75;0.75;;;;;;;10.25;100.00;100526.97;5019153;28;20218;-77
2023/05/12 01:56:41;;;;;;;0.70;0.70;;;;;;;10.54;100.00;100593.31;5070481;28;20199;-77
2023/05/12 01:59:07;;;;;;;1.02;1.02;;;;;;;10.85;100.00;100620.81;5070567;28;20199;-77
2023/05/12 02:01:36;;;;;;;0.80;0.80;;;;;;;10.65;100.00;100611.72;5018725;28;20226;-77
2023/05/12 02:04:03;;;;;;;0.90;0.90;;;;;;;10.71;100.00;100612.75;5070367;28;20198;-76
2023/05/12 02:06:31;;;;;;;0.80;0.80;;;;;;;10.81;100.00;100629.38;5070817;28;20194;-76
2023/05/12 02:08:58;;;;;;;0.80;0.80;;;;;;;10.77;100.00;100619.81;5070942;28;20273;-76
2023/05/12 02:11:25;;;;;;;0.70;0.70;;;;;;;10.58;100.00;100589.09;5071228;28;20202;-76
2023/05/12 02:13:52;;;;;;;0.70;0.70;;;;;;;10.84;100.00;100624.28;5074237;28;20551;-79
2023/05/12 02:16:19;;;;;;;0.80;0.80;;;;;;;10.78;100.00;100629.31;5074532;28;20214;-76
2023/05/12 02:18:47;;;;;;;0.65;0.65;;;;;;;10.73;100.00;100610.19;5070016;28;20260;-77
2023/05/12 02:21:14;;;;;;;0.80;0.80;;;;;;;10.81;100.00;100624.19;5073706;28;20234;-77
2023/05/12 02:23:40;;;;;;;0.80;0.80;;;;;;;10.61;100.00;100609.91;5023225;28;20599;-77
2023/05/12 02:26:07;;;;;;;0.80;0.80;;;;;;;10.54;100.00;100587.25;5074088;28;20235;-77
2023/05/12 02:28:35;;;;;;;0.90;0.90;;;;;;;10.81;100.00;100619.00;5074576;28;20203;-77
2023/05/12 02:31:02;;;;;;;0.80;0.80;;;;;;;10.64;100.00;100610.84;5074324;28;20199;-77
2023/05/12 02:33:29;;;;;;;0.73;0.73;;;;;;;10.56;100.00;100611.53;5073109;28;20676;-77
2023/05/12 02:35:57;;;;;;;0.90;0.90;;;;;;;10.66;100.00;100609.19;5074125;28;20661;-78
2023/05/12 02:38:24;;;;;;;0.70;0.70;;;;;;;10.42;100.00;100591.31;5074135;28;20253;-77
2023/05/12 02:40:50;;;;;;;0.60;0.60;;;;;;;10.65;100.00;100611.72;5074269;28;20194;-77
2023/05/12 02:43:17;;;;;;;0.80;0.80;;;;;;;10.66;100.00;100608.31;5074245;28;20234;-77
2023/05/12 02:45:44;;;;;;;0.80;0.80;;;;;;;10.65;100.00;100611.72;5074014;28;20198;-77
2023/05/12 02:48:11;;;;;;;0.70;0.70;;;;;;;10.23;100.00;100547.69;5074635;28;20255;-77
2023/05/12 02:50:37;;;;;;;0.70;0.70;;;;;;;10.48;100.00;100598.38;5072219;28;20202;-77
2023/05/12 02:53:06;;;;;;;0.63;0.63;;;;;;;10.71;100.00;100612.75;5069451;28;20210;-77
2023/05/12 02:55:32;;;;;;;1.17;1.17;;;;;;;10.68;100.00;100611.78;5073340;28;20195;-77
2023/05/12 02:57:59;;;;;;;0.70;0.70;;;;;;;10.58;100.00;100612.44;5072949;28;20199;-77
2023/05/12 03:00:26;;;;;;;0.70;0.70;;;;;;;10.68;100.00;100630.81;5073024;28;20666;-77
2023/05/12 03:02:53;;;;;;;0.70;0.70;;;;;;;10.71;100.00;100632.59;5073352;28;20272;-77
2023/05/12 03:05:20;;;;;;;1.15;1.15;;;;;;;10.63;100.00;100618.59;5073471;28;20195;-75
2023/05/12 03:07:48;;;;;;;0.80;0.80;;;;;;;10.70;100.00;100620.50;5073668;28;20198;-77
2023/05/12 03:10:16;;;;;;;0.70;0.70;;;;;;;10.78;100.00;100634.50;5073340;28;20271;-77
2023/05/12 03:12:43;;;;;;;0.70;0.70;;;;;;;10.74;100.00;100635.28;5073061;28;20279;-76
2023/05/12 03:15:11;;;;;;;0.70;0.70;;;;;;;10.92;100.00;100633.97;5073589;28;20246;-78
2023/05/12 03:17:38;;;;;;;2.83;2.45;;;;;;;10.97;100.00;100631.50;5069627;28;20260;-76
2023/05/12 03:20:06;;;;;;;0.70;0.70;;;;;;;10.89;100.00;100627.84;5073230;28;20187;-77
2023/05/12 03:22:32;;;;;;;0.70;0.70;;;;;;;10.85;100.00;100642.47;5073536;28;20214;-77
2023/05/12 03:24:59;;;;;;;0.70;0.70;;;;;;;10.74;100.00;100643.03;5050158;28;20199;-77
2023/05/12 03:27:27;;;;;;;0.73;0.73;;;;;;;11.13;100.00;100637.91;5070144;28;20195;-74
2023/05/12 03:29:54;;;;;;;1.00;1.00;;;;;;;10.99;100.00;100639.31;5056109;28;20206;-77
2023/05/12 03:32:21;;;;;;;0.80;0.80;;;;;;;10.94;100.00;100641.81;5072054;28;20214;-78
2023/05/12 03:34:48;;;;;;;0.70;0.70;;;;;;;10.86;100.00;100653.72;5072467;28;20203;-77
2023/05/12 03:37:15;;;;;;;0.90;0.90;;;;;;;10.80;100.00;100648.41;5071832;28;20194;-77
2023/05/12 03:39:41;;;;;;;0.80;0.80;;;;;;;10.71;100.00;100653.34;5072427;28;20223;-76
2023/05/12 03:42:08;;;;;;;0.80;0.80;;;;;;;10.74;100.00;100653.41;5071981;28;20233;-76
2023/05/12 03:44:36;;;;;;;0.75;0.75;;;;;;;10.94;100.00;100658.25;5072618;28;20562;-76
2023/05/12 03:47:03;;;;;;;2.72;1.35;;;;;;;10.96;100.00;100655.69;5069142;28;20717;-77
2023/05/12 03:49:30;;;;;;;0.80;0.80;;;;;;;11.09;100.00;100665.50;5070663;28;20198;-76
2023/05/12 03:51:57;;;;;;;0.90;0.90;;;;;;;11.08;100.00;100663.75;5071932;28;20214;-76
2023/05/12 03:54:24;;;;;;;0.70;0.70;;;;;;;11.16;100.00;100676.91;5072416;28;20194;-76
2023/05/12 03:56:52;;;;;;;1.05;1.05;;;;;;;11.19;100.00;100670.06;5072448;28;20199;-76
2023/05/12 03:59:19;;;;;;;0.80;0.80;;;;;;;11.19;100.00;100670.06;5073041;28;20203;-76
2023/05/12 04:01:47;;;;;;;1.30;1.30;;;;;;;11.35;100.00;100682.50;5072603;28;20250;-76
2023/05/12 04:04:14;;;;;;;0.80;0.80;;;;;;;11.37;100.00;100691.22;5072254;28;20568;-78
2023/05/12 04:06:41;;;;;;;0.73;0.73;;;;;;;11.45;100.00;100697.44;5072097;28;20206;-77
2023/05/12 04:09:08;;;;;;;0.80;0.80;;;;;;;11.61;100.00;100695.16;5072300;28;20285;-76
2023/05/12 04:11:35;;;;;;;0.80;0.80;;;;;;;11.67;100.00;100697.88;5072845;28;20278;-76
2023/05/12 04:14:02;;;;;;;0.77;0.77;;;;;;;11.75;100.00;100688.56;5072428;28;20202;-75
2023/05/12 04:16:29;;;;;;;1.60;1.50;;;;;;;11.77;100.00;100707.66;5072564;28;20198;-77
2023/05/12 04:18:57;;;;;;;0.70;0.70;;;;;;;11.67;100.00;100703.06;5072404;28;20203;-77
2023/05/12 04:21:24;;;;;;;0.70;0.70;;;;;;;11.60;100.00;100699.47;5071745;28;20203;-77
2023/05/12 04:23:52;;;;;;;0.90;0.90;;;;;;;11.76;100.00;100703.31;5071793;28;20212;-79
2023/05/12 04:26:19;;;;;;;0.80;0.80;;;;;;;11.54;100.00;100708.88;5062899;28;20286;-77
2023/05/12 04:28:47;;;;;;;0.85;0.85;;;;;;;11.57;100.00;100688.16;5053095;28;20600;-77
2023/05/12 04:31:13;;;;;;;0.95;0.95;;;;;;;11.78;100.00;100714.59;5062492;28;20249;-78
2023/05/12 04:33:40;;;;;;;0.80;0.80;;;;;;;11.64;100.00;100724.66;5010602;28;20215;-77
2023/05/12 04:36:09;;;;;;;0.90;0.90;;;;;;;11.58;100.00;100695.97;5019444;28;20212;-77
2023/05/12 04:38:36;;;;;;;0.80;0.80;;;;;;;11.62;100.00;100723.78;5052164;28;20207;-77
2023/05/12 04:41:03;;;;;;;0.80;0.80;;;;;;;11.46;100.00;100724.28;5066104;28;20211;-75
2023/05/12 04:43:29;;;;;;;0.90;0.90;;;;;;;11.38;100.00;100713.72;5065544;28;20230;-77
2023/05/12 04:45:56;;;;;;;0.70;0.70;;;;;;;11.57;100.00;100725.38;5057417;28;20218;-77
2023/05/12 04:48:23;;;;;;;0.75;0.75;;;;;;;11.39;100.00;100725.88;5057403;28;20211;-77
2023/05/12 04:50:50;;;;;;;0.77;0.77;;;;;;;11.45;100.00;100720.78;5068655;28;20226;-77
2023/05/12 04:53:18;;;;;;;1.33;1.33;;;;;;;11.66;100.00;100716.91;5069368;28;20207;-77
2023/05/12 04:55:45;;;;;;;0.80;0.80;;;;;;;11.75;100.00;100712.81;5061751;28;20658;-76
2023/05/12 04:58:13;;;;;;;0.80;0.80;;;;;;;11.73;100.00;100724.03;5065111;28;20654;-77
2023/05/12 05:00:40;;;;;;;0.88;0.88;;;;;;;11.82;100.00;100722.47;5064898;28;20235;-77
2023/05/12 05:03:07;;;;;;;0.60;0.60;;;;;;;11.85;100.00;100742.44;5065782;28;20219;-77
2023/05/12 05:05:33;;;;;;;0.80;0.80;;;;;;;11.77;100.00;100736.25;5061308;28;20215;-75
2023/05/12 05:08:01;;;;;;;0.70;0.70;;;;;;;11.73;100.00;100737.91;5068967;28;20198;-77
2023/05/12 05:10:29;;;;;;;0.80;0.80;;;;;;;11.58;100.00;100740.13;5007066;28;20230;-76
2023/05/12 05:12:56;;;;;;;1.10;1.10;;;;;;;11.77;100.00;100734.50;5064840;28;20209;-74
2023/05/12 05:15:22;;;;;;;0.60;0.60;;;;;;;11.75;100.00;100743.09;5065312;28;20203;-78
2023/05/12 05:17:49;;;;;;;0.80;0.80;;;;;;;11.68;100.00;100738.59;5056231;28;20290;-78
2023/05/12 05:20:16;;;;;;;0.70;0.70;;;;;;;11.65;100.00;100734.22;5017790;28;20210;-78
2023/05/12 05:22:43;;;;;;;0.90;0.90;;;;;;;11.81;100.00;100740.63;5009691;28;20222;-77
2023/05/12 05:25:10;;;;;;;0.70;0.70;;;;;;;11.97;100.00;100742.72;5053456;28;20234;-74
2023/05/12 05:27:38;;;;;;;0.70;0.70;;;;;;;11.80;100.00;100744.09;5057256;28;20199;-80
2023/05/12 05:30:07;;;;;;;0.65;0.65;;;;;;;11.98;100.00;100749.66;5011452;28;20659;-79
2023/05/12 05:32:36;;;;;;;0.63;0.63;;;;;;;11.69;100.00;100735.16;5062354;28;20215;-78
2023/05/12 05:35:03;;;;;;;0.70;0.70;;;;;;;12.00;100.00;100752.28;5056358;28;20238;-82
2023/05/12 05:37:30;;;;;;;1.10;1.10;;;;;;;12.00;100.00;100750.56;5063455;28;20198;-81
2023/05/12 05:39:57;;;;;;;3.63;1.90;;;;;;;12.21;100.00;100750.97;5052758;28;20231;-84
2023/05/12 05:42:24;;;;;;;1.08;1.08;;;;;;;12.27;100.00;100758.88;5057148;28;20227;-84
2023/05/12 05:44:52;;;;;;;0.80;0.80;;;;;;;12.33;100.00;100742.53;5019296;28;20605;-83
2023/05/12 05:47:19;;;;;;;0.73;0.73;;;;;;;12.21;100.00;100743.16;5070467;28;20207;-83
2023/05/12 05:49:46;;;;;;;0.70;0.70;;;;;;;12.08;100.00;100749.00;5070720;28;20209;-83
2023/05/12 05:52:13;;;;;;;0.80;0.80;;;;;;;12.30;100.00;100753.75;5060484;28;20210;-85
2023/05/12 05:54:39;;;;;;;0.80;0.80;;;;;;;12.43;100.00;100755.72;5053264;28;20219;-77
2023/05/12 05:57:06;;;;;;;0.70;0.70;;;;;;;12.23;100.00;100743.22;5070605;28;20206;-77
2023/05/12 05:59:33;;;;;;;0.80;0.80;;;;;;;12.26;100.00;100762.34;5070200;28;20217;-76
2023/05/12 06:02:02;;;;;;;0.80;0.80;;;;;;;12.45;100.00;100758.34;5063235;28;20210;-76
2023/05/12 06:04:29;;;;;;;0.70;0.70;;;;;;;12.43;100.00;100736.66;5063952;28;20202;-76
2023/05/12 06:06:56;;;;;;;0.70;0.70;;;;;;;12.48;100.00;100762.75;5070231;28;20570;-77
2023/05/12 06:09:22;;;;;;;0.70;0.70;;;;;;;12.60;100.00;100768.16;5070273;28;20583;-76
2023/05/12 06:11:49;;;;;;;0.73;0.73;;;;;;;12.98;100.00;100772.31;5055958;28;20199;-78
2023/05/12 06:14:16;;;;;;;1.42;1.30;;;;;;;13.13;100.00;100782.97;5070381;28;20209;-76
2023/05/12 06:16:43;;;;;;;0.80;0.80;;;;;;;13.27;100.00;100783.22;5056058;28;20607;-76
2023/05/12 06:19:11;;;;;;;0.80;0.80;;;;;;;13.52;100.00;100787.06;5070291;28;20642;-77
2023/05/12 06:21:38;;;;;;;0.70;0.70;;;;;;;13.81;100.00;100783.09;5069483;28;20624;-76
2023/05/12 06:24:05;;;;;;;0.82;0.82;;;;;;;13.69;100.00;100788.16;5050204;28;20231;-75
2023/05/12 06:26:32;;;;;;;0.80;0.80;;;;;;;13.74;100.00;100784.75;5050604;28;20667;-76
2023/05/12 06:28:59;;;;;;;0.90;0.90;;;;;;;13.73;100.00;100788.19;5050621;28;20222;-75
2023/05/12 06:31:25;;;;;;;0.90;0.90;;;;;;;14.17;100.00;100786.16;5050328;28;20199;-75
2023/05/12 06:33:52;;;;;;;0.90;0.90;;;;;;;13.73;100.00;100792.56;5050421;28;20208;-75
2023/05/12 06:36:21;;;;;;;1.60;1.60;;;;;;;13.64;100.00;100776.78;5050096;28;20203;-76
2023/05/12 06:38:49;;;;;;;1.48;1.48;;;;;;;13.48;100.00;100788.75;5050486;28;20244;-76
2023/05/12 06:41:16;;;;;;;0.80;0.80;;;;;;;13.94;100.00;100798.06;5050509;28;20276;-76
2023/05/12 06:43:43;;;;;;;0.80;0.80;;;;;;;14.09;100.00;100790.41;5050255;28;20227;-76
2023/05/12 06:46:10;;;;;;;0.88;0.88;;;;;;;14.00;100.00;100798.13;5050324;28;20199;-76
2023/05/12 06:48:37;;;;;;;0.90;0.90;;;;;;;13.64;100.00;100788.09;5050192;28;20670;-76
2023/05/12 06:51:04;;;;;;;0.90;0.90;;;;;;;13.60;100.00;100788.91;5050349;28;20635;-76
2023/05/12 06:53:36;;;;;;;0.80;0.80;;;;;;;13.52;100.00;100787.06;5050310;28;20218;-75
2023/05/12 06:56:03;;;;;;;0.90;0.90;;;;;;;13.52;100.00;100790.50;5050257;28;20195;-76
2023/05/12 06:58:30;;;;;;;0.80;0.80;;;;;;;13.85;100.00;100792.72;5050099;28;20235;-77
2023/05/12 07:00:57;;;;;;;0.90;0.90;;;;;;;13.73;100.00;100797.78;5053480;28;20206;-76
2023/05/12 07:03:24;;;;;;;0.80;0.80;;;;;;;13.77;100.00;100789.13;5053548;28;20259;-75
2023/05/12 07:05:51;;;;;;;0.80;0.80;;;;;;;14.06;100.00;100798.19;5018860;28;20192;-74
2023/05/12 07:08:17;;;;;;;0.90;0.90;;;;;;;14.00;100.00;100800.72;5053489;28;20265;-74
2023/05/12 07:10:46;;;;;;;0.85;0.85;;;;;;;13.91;100.00;100800.63;5002429;28;20207;-75
2023/05/12 07:13:12;;;;;;;0.90;0.90;;;;;;;13.74;100.00;100789.97;5053686;28;20203;-77
2023/05/12 07:15:39;;;;;;;0.80;0.80;;;;;;;13.95;100.00;100794.56;5053387;28;20200;-77
2023/05/12 07:18:06;;;;;;;1.00;1.00;;;;;;;14.25;100.00;100791.47;5053704;28;20214;-76
2023/05/12 07:20:33;;;;;;;0.90;0.90;;;;;;;14.57;100.00;100797.94;5053456;28;20199;-77
2023/05/12 07:22:59;;;;;;;1.17;1.17;;;;;;;14.27;100.00;100797.56;5053464;28;20230;-75
2023/05/12 07:25:27;;;;;;;1.23;1.23;;;;;;;14.23;100.00;100788.81;5053628;28;20599;-76
2023/05/12 07:27:55;;;;;;;0.93;0.93;;;;;;;14.52;100.00;100780.50;5053625;28;20241;-76
2023/05/12 07:30:22;;;;;;;0.80;0.80;;;;;;;15.04;100.00;100801.00;5053326;28;20222;-76
2023/05/12 07:32:49;;;;;;;0.80;0.80;;;;;;;15.15;100.00;100808.94;5053415;28;20234;-76
2023/05/12 07:35:16;;;;;;;0.80;0.80;;;;;;;14.93;100.00;100804.38;5053217;28;20210;-76
2023/05/12 07:37:42;;;;;;;0.90;0.90;;;;;;;15.11;100.00;100813.25;5053420;28;20261;-76
2023/05/12 07:40:09;;;;;;;0.98;0.98;;;;;;;14.78;100.00;100786.81;5053355;28;20231;-76
2023/05/12 07:42:36;;;;;;;0.80;0.80;;;;;;;14.66;100.00;100782.34;5053045;28;20199;-75
2023/05/12 07:45:05;;;;;;;0.90;0.90;;;;;;;14.64;100.00;100726.66;5053140;28;20603;-76
2023/05/12 07:47:32;;;;;;;0.80;0.80;;;;;;;15.14;100.00;100810.66;5053044;28;20218;-76
2023/05/12 07:49:58;;;;;;;0.80;0.80;;;;;;;15.23;100.00;100813.31;5052927;28;20204;-77
2023/05/12 07:52:25;;;;;;;0.70;0.70;;;;;;;15.20;100.00;100810.69;5053173;28;20191;-77
2023/05/12 07:54:52;;;;;;;0.90;0.90;;;;;;;15.31;100.00;100811.66;5052900;28;20229;-77
2023/05/12 07:57:19;;;;;;;0.80;0.80;;;;;;;14.96;100.00;100781.78;5052981;28;20286;-77
2023/05/12 07:59:46;;;;;;;1.00;1.00;;;;;;;15.22;100.00;100806.38;5053333;28;20231;-78
2023/05/12 08:02:15;;;;;;;1.00;1.00;;;;;;;15.16;100.00;100806.31;5053115;28;20195;-77
2023/05/12 08:04:42;;;;;;;0.95;0.95;;;;;;;15.04;100.00;100784.44;5018638;28;20259;-77
2023/05/12 08:07:09;;;;;;;0.82;0.82;;;;;;;15.28;100.00;100811.63;5017793;28;20195;-76
2023/05/12 08:09:36;;;;;;;0.85;0.85;;;;;;;15.17;100.00;100807.19;5052717;28;20196;-77
2023/05/12 08:12:03;;;;;;;0.82;0.82;;;;;;;15.36;100.00;100807.34;5017298;28;20580;-78
2023/05/12 08:14:29;;;;;;;0.90;0.90;;;;;;;15.42;100.00;100813.47;5052651;28;20202;-76
2023/05/12 08:16:56;;;;;;;0.82;0.82;;;;;;;15.56;100.00;100804.00;5017476;28;20192;-78
2023/05/12 08:19:24;;;;;;;0.80;0.80;;;;;;;15.47;99.83;100806.53;5052501;28;20203;-75
2023/05/12 08:21:51;;;;;;;1.00;1.00;;;;;;;15.26;100.00;100809.88;5052545;28;20207;-75
2023/05/12 08:24:18;;;;;;;0.82;0.82;;;;;;;15.28;100.00;100809.03;5051854;28;20318;-73
2023/05/12 08:26:44;;;;;;;0.90;0.90;;;;;;;15.10;99.37;100806.28;5069344;28;20210;-73
2023/05/12 08:29:11;;;;;;;1.00;1.00;;;;;;;14.99;98.74;100817.47;5071722;28;20202;-73
2023/05/12 08:31:38;;;;;;;0.90;0.90;;;;;;;14.98;98.55;100814.00;5060505;28;20214;-75
2023/05/12 08:34:05;;;;;;;0.90;0.90;;;;;;;15.10;98.50;100802.78;5030661;28;20648;-73
2023/05/12 08:36:33;;;;;;;0.90;0.90;;;;;;;14.97;99.90;100809.66;5068798;28;20206;-75
2023/05/12 08:39:01;;;;;;;0.90;0.90;;;;;;;15.11;98.60;100808.03;5052016;28;20227;-75
2023/05/12 08:41:41;;;;;;;0.80;0.80;;;;;;;15.25;98.43;100806.41;5066633;28;20289;-75
2023/05/12 08:44:09;;;;;;;0.90;0.90;;;;;;;15.25;95.36;100803.78;5071485;28;20621;-75
2023/05/12 08:46:36;;;;;;;0.82;0.82;;;;;;;15.44;94.45;100803.91;5071431;28;20202;-75
2023/05/12 08:49:04;;;;;;;0.90;0.90;;;;;;;15.20;93.29;100766.28;5064452;28;20212;-75
2023/05/12 08:51:36;;;;;;;1.33;1.33;;;;;;;15.36;92.98;100799.50;5065080;28;20199;-75
2023/05/12 08:54:04;;;;;;;0.80;0.80;;;;;;;15.49;92.61;100783.94;5006471;28;20264;-74
2023/05/12 08:56:32;;;;;;;0.90;0.90;;;;;;;16.04;90.84;100800.78;5058515;28;20648;-75
2023/05/12 08:59:02;;;;;;;0.77;0.77;;;;;;;15.88;87.41;100800.72;5015302;28;20215;-74
2023/05/12 09:01:30;;;;;;;0.70;0.70;;;;;;;16.03;86.01;100779.00;5051341;28;20200;-75
2023/05/12 09:03:56;;;;;;;0.80;0.80;;;;;;;16.47;87.14;100801.81;5051010;28;20227;-75
2023/05/12 09:06:23;;;;;;;0.82;0.82;;;;;;;16.55;83.58;100806.19;5009533;28;20222;-75
2023/05/12 09:08:51;;;;;;;0.80;0.80;;;;;;;17.28;80.16;100807.16;5035757;28;20215;-74
2023/05/12 09:11:20;;;;;;;0.70;0.70;;;;;;;17.51;76.45;100806.28;5016090;28;20670;-74
2023/05/12 09:13:54;;;;;;;0.90;0.90;;;;;;;17.38;75.63;100812.41;5000195;28;20294;-73
2023/05/12 09:16:24;;;;;;;0.70;0.70;;;;;;;17.35;76.48;100813.28;5050967;28;20200;-74
2023/05/12 09:18:52;;;;;;;0.77;0.77;;;;;;;17.16;75.57;100812.41;5064986;28;20652;-73
2023/05/12 09:21:19;;;;;;;0.70;0.70;;;;;;;16.83;77.88;100801.94;5057177;28;20264;-73
2023/05/12 09:23:57;;;;;;;0.70;0.70;;;;;;;17.07;76.85;100791.47;5070221;28;20231;-74
2023/05/12 09:26:25;;;;;;;0.70;0.70;;;;;;;17.01;76.19;100801.06;5057315;28;20258;-75
2023/05/12 09:28:54;;;;;;;0.80;0.80;;;;;;;17.33;74.94;100809.81;5070921;28;20207;-75
2023/05/12 09:31:22;;;;;;;2.03;1.90;;;;;;;17.95;71.38;100806.19;5015521;28;20216;-75
2023/05/12 09:33:50;;;;;;;0.70;0.70;;;;;;;18.05;71.59;100803.50;5062162;28;20210;-75
2023/05/12 09:36:18;;;;;;;0.90;0.90;;;;;;;17.98;68.20;100800.94;5056433;28;20227;-75
2023/05/12 09:38:45;;;;;;;0.70;0.70;;;;;;;18.28;68.16;100799.06;5070675;28;20682;-74
2023/05/12 09:41:13;;;;;;;0.70;0.70;;;;;;;18.25;64.62;100783.31;5055501;28;20670;-75
2023/05/12 09:43:47;;;;;;;0.70;0.70;;;;;;;18.13;62.29;100795.63;5050500;28;20230;-74
2023/05/12 09:46:14;;;;;;;0.60;0.60;;;;;;;18.16;64.65;100791.22;5064608;28;20202;-73
2023/05/12 09:48:41;;;;;;;0.70;0.70;;;;;;;18.13;64.27;100795.63;5050450;28;20611;-74
2023/05/12 09:51:10;;;;;;;0.73;0.73;;;;;;;18.23;61.83;100790.31;5050821;28;20200;-74
2023/05/12 09:53:43;;;;;;;0.80;0.80;;;;;;;18.28;61.06;100791.19;5050383;28;20230;-74
2023/05/12 09:56:13;;;;;;;0.85;0.85;;;;;;;18.38;60.56;100792.00;5050522;28;20225;-74
2023/05/12 09:58:42;;;;;;;0.70;0.70;;;;;;;18.52;59.75;100789.31;5069377;28;20662;-73
2023/05/12 10:01:10;;;;;;;0.70;0.70;;;;;;;18.52;58.91;100784.94;5015372;28;20314;-73
2023/05/12 10:03:39;;;;;;;0.90;0.90;;;;;;;18.10;58.93;100772.88;5067944;28;20305;-73
2023/05/12 10:06:09;;;;;;;0.60;0.60;;;;;;;18.44;57.90;100783.22;5070474;28;20214;-73
2023/05/12 10:08:42;;;;;;;0.70;0.70;;;;;;;18.54;56.64;100782.31;5034880;28;20607;-73
2023/05/12 10:11:09;;;;;;;0.70;0.70;;;;;;;19.12;55.28;100780.97;5070480;28;20712;-73
2023/05/12 10:13:38;;;;;;;0.70;0.70;;;;;;;19.45;54.97;100786.84;5068403;28;20276;-74
2023/05/12 10:16:07;;;;;;;0.70;0.70;;;;;;;18.74;56.03;100783.94;5050528;28;20203;-74
2023/05/12 10:18:34;;;;;;;0.65;0.65;;;;;;;19.07;56.13;100784.56;5013484;28;20211;-74
2023/05/12 10:21:02;;;;;;;0.70;0.70;;;;;;;18.67;55.98;100758.59;5063557;28;20196;-76
2023/05/12 10:23:30;;;;;;;0.80;0.80;;;;;;;18.90;54.89;100776.81;5015361;28;20203;-78
2023/05/12 10:26:00;;;;;;;0.70;0.70;;;;;;;19.04;53.96;100768.81;5050715;28;20200;-77
2023/05/12 10:28:28;;;;;;;0.80;0.80;;;;;;;19.01;53.98;100782.88;5050667;28;20214;-78
2023/05/12 10:30:56;;;;;;;1.08;1.08;;;;;;;18.98;55.61;100780.22;5068878;28;20203;-77
2023/05/12 10:33:23;;;;;;;0.70;0.70;;;;;;;18.64;52.44;100771.75;5071839;28;20239;-77
2023/05/12 10:35:52;;;;;;;0.82;0.82;;;;;;;18.90;51.75;100776.81;5074565;28;20210;-78
2023/05/12 10:38:19;;;;;;;0.70;0.70;;;;;;;18.62;52.70;100775.28;5074779;28;20202;-78
2023/05/12 10:40:52;;;;;;;5.43;1.55;;;;;;;19.21;50.62;100761.63;5074194;28;20231;-78
2023/05/12 10:43:22;;;;;;;0.80;0.80;;;;;;;19.50;51.28;100785.94;5074866;28;20297;-76
2023/05/12 10:46:09;;;;;;;0.73;0.73;;;;;;;19.25;51.01;100784.41;5074277;28;20309;-75
2023/05/12 10:48:37;;;;;;;0.80;0.80;;;;;;;18.88;52.11;100773.31;5074294;28;20634;-75
2023/05/12 10:51:07;;;;;;;0.80;0.80;;;;;;;19.38;53.49;100764.09;5023205;28;20290;-82
2023/05/12 10:53:34;;;;;;;0.90;0.90;;;;;;;19.36;52.01;100776.41;5023804;28;20205;-75
2023/05/12 10:56:04;;;;;;;0.70;0.70;;;;;;;19.47;52.63;100783.34;5039620;28;20191;-77
2023/05/12 10:58:31;;;;;;;0.70;0.70;;;;;;;18.99;50.69;100786.38;5074399;28;20229;-77
2023/05/12 11:01:05;;;;;;;0.80;0.80;;;;;;;18.99;51.56;100770.59;5074630;28;20643;-78
2023/05/12 11:03:33;;;;;;;0.80;0.80;;;;;;;19.08;50.70;100753.00;5073953;28;20637;-77
2023/05/12 11:06:01;;;;;;;0.70;0.70;;;;;;;19.38;50.65;100769.34;5074075;28;20294;-76
2023/05/12 11:08:29;;;;;;;0.80;0.80;;;;;;;19.62;50.99;100769.16;5074320;28;20205;-77
2023/05/12 11:10:56;;;;;;;0.80;0.80;;;;;;;19.15;50.22;100761.72;5073869;28;20230;-77
2023/05/12 11:13:24;;;;;;;0.80;0.80;;;;;;;19.03;49.90;100762.69;5074048;28;20213;-76
2023/05/12 11:15:51;;;;;;;0.90;0.90;;;;;;;19.01;51.67;100764.47;5073772;28;20210;-76
2023/05/12 11:18:21;;;;;;;0.77;0.77;;;;;;;19.15;50.39;100762.59;5073583;28;20203;-75
2023/05/12 11:20:50;;;;;;;0.80;0.80;;;;;;;19.26;50.12;100746.69;5073631;28;20701;-76